sensor_id;sensor_type;location;lat;lon;timestamp;pressure;altitude;pressure_sealevel;temperature;humidity
68075;BME280;54864;52.002;5.468;2023-02-13T00:00:14;103637.94;;;9.25;68.32
68075;BME280;54864;52.002;5.468;2023-02-13T00:01:17;103638.84;;;9.30;67.64
68075;BME280;54864;52.002;5.468;2023-02-13T00:02:18;103643.00;;;8.98;68.39
68075;BME280;54864;52.002;5.468;2023-02-13T00:03:20;103633.25;;;8.80;69.21
68075;BME280;54864;52.002;5.468;2023-02-13T00:04:21;103636.00;;;9.01;68.42
68075;BME280;54864;52.002;5.468;2023-02-13T00:05:23;103632.50;;;8.99;69.20
68075;BME280;54864;52.002;5.468;2023-02-13T00:06:23;103628.97;;;8.96;68.57
68075;BME280;54864;52.002;5.468;2023-02-13T00:07:25;103634.28;;;9.05;68.93
68075;BME280;54864;52.002;5.468;2023-02-13T00:08:28;103631.72;;;9.11;68.73
68075;BME280;54864;52.002;5.468;2023-02-13T00:09:30;103636.09;;;9.10;68.63
68075;BME280;54864;52.002;5.468;2023-02-13T00:10:31;103637.81;;;9.05;69.00
68075;BME280;54864;52.002;5.468;2023-02-13T00:11:33;103643.00;;;8.98;69.48
68075;BME280;54864;52.002;5.468;2023-02-13T00:12:38;103643.91;;;9.03;69.34
68075;BME280;54864;52.002;5.468;2023-02-13T00:13:40;103631.75;;;9.15;68.48
68075;BME280;54864;52.002;5.468;2023-02-13T00:14:40;103631.66;;;9.08;68.34
68075;BME280;54864;52.002;5.468;2023-02-13T00:15:42;103634.44;;;9.26;67.97
68075;BME280;54864;52.002;5.468;2023-02-13T00:16:43;103632.72;;;9.33;68.14
68075;BME280;54864;52.002;5.468;2023-02-13T00:17:45;103635.34;;;9.34;68.00
68075;BME280;54864;52.002;5.468;2023-02-13T00:18:46;103628.31;;;9.30;67.93
68075;BME280;54864;52.002;5.468;2023-02-13T00:19:47;103631.84;;;9.32;67.79
68075;BME280;54864;52.002;5.468;2023-02-13T00:20:56;103631.75;;;9.14;67.76
68075;BME280;54864;52.002;5.468;2023-02-13T00:21:58;103627.25;;;9.01;69.25
68075;BME280;54864;52.002;5.468;2023-02-13T00:22:59;103626.47;;;9.11;68.40
68075;BME280;54864;52.002;5.468;2023-02-13T00:24:01;103618.63;;;9.20;68.64
68075;BME280;54864;52.002;5.468;2023-02-13T00:25:02;103623.00;;;9.21;68.00
68075;BME280;54864;52.002;5.468;2023-02-13T00:26:06;103620.38;;;9.19;68.13
68075;BME280;54864;52.002;5.468;2023-02-13T00:27:07;103615.88;;;9.09;68.44
68075;BME280;54864;52.002;5.468;2023-02-13T00:28:10;103623.00;;;9.19;68.48
68075;BME280;54864;52.002;5.468;2023-02-13T00:29:11;103619.53;;;9.28;67.97
68075;BME280;54864;52.002;5.468;2023-02-13T00:31:16;103618.66;;;9.29;68.27
68075;BME280;54864;52.002;5.468;2023-02-13T00:32:18;103616.03;;;9.31;68.06
68075;BME280;54864;52.002;5.468;2023-02-13T00:33:19;103619.50;;;9.25;68.12
68075;BME280;54864;52.002;5.468;2023-02-13T00:34:20;103625.66;;;9.27;67.93
68075;BME280;54864;52.002;5.468;2023-02-13T00:35:21;103614.25;;;9.25;68.39
68075;BME280;54864;52.002;5.468;2023-02-13T00:36:23;103623.00;;;9.23;67.96
68075;BME280;54864;52.002;5.468;2023-02-13T00:37:24;103618.59;;;9.18;67.99
68075;BME280;54864;52.002;5.468;2023-02-13T00:38:28;103622.94;;;9.10;68.67
68075;BME280;54864;52.002;5.468;2023-02-13T00:39:29;103622.81;;;8.94;69.22
68075;BME280;54864;52.002;5.468;2023-02-13T00:40:31;103625.53;;;9.09;69.49
68075;BME280;54864;52.002;5.468;2023-02-13T00:41:31;103622.66;;;8.72;69.96
68075;BME280;54864;52.002;5.468;2023-02-13T00:42:33;103608.66;;;8.76;70.46
68075;BME280;54864;52.002;5.468;2023-02-13T00:43:36;103615.69;;;8.77;69.67
68075;BME280;54864;52.002;5.468;2023-02-13T00:44:38;103618.38;;;8.86;69.55
68075;BME280;54864;52.002;5.468;2023-02-13T00:45:39;103615.81;;;8.97;69.32
68075;BME280;54864;52.002;5.468;2023-02-13T00:46:41;103618.53;;;9.09;68.90
68075;BME280;54864;52.002;5.468;2023-02-13T00:47:42;103616.81;;;9.13;69.30
68075;BME280;54864;52.002;5.468;2023-02-13T00:48:44;103596.59;;;9.07;68.85
68075;BME280;54864;52.002;5.468;2023-02-13T00:49:45;103618.59;;;9.18;69.03
68075;BME280;54864;52.002;5.468;2023-02-13T00:50:47;103612.47;;;9.18;68.46
68075;BME280;54864;52.002;5.468;2023-02-13T00:51:48;103613.31;;;9.11;68.45
68075;BME280;54864;52.002;5.468;2023-02-13T00:52:50;103608.94;;;9.14;68.80
68075;BME280;54864;52.002;5.468;2023-02-13T00:53:51;103615.06;;;9.15;69.15
68075;BME280;54864;52.002;5.468;2023-02-13T00:54:53;103615.09;;;9.21;68.89
68075;BME280;54864;52.002;5.468;2023-02-13T00:55:54;103617.75;;;9.21;68.42
68075;BME280;54864;52.002;5.468;2023-02-13T00:56:56;103606.13;;;8.92;69.02
68075;BME280;54864;52.002;5.468;2023-02-13T00:57:56;103617.50;;;8.86;69.39
68075;BME280;54864;52.002;5.468;2023-02-13T00:59:00;103603.44;;;8.79;69.82
68075;BME280;54864;52.002;5.468;2023-02-13T01:00:01;103607.78;;;8.76;69.80
68075;BME280;54864;52.002;5.468;2023-02-13T01:01:03;103610.53;;;8.94;69.38
68075;BME280;54864;52.002;5.468;2023-02-13T01:02:04;103609.69;;;9.01;69.20
68075;BME280;54864;52.002;5.468;2023-02-13T01:03:06;103608.84;;;9.07;69.08
68075;BME280;54864;52.002;5.468;2023-02-13T01:04:08;103616.63;;;8.88;69.55
68075;BME280;54864;52.002;5.468;2023-02-13T01:05:10;103610.53;;;8.93;69.58
68075;BME280;54864;52.002;5.468;2023-02-13T01:06:11;103610.59;;;9.03;69.07
68075;BME280;54864;52.002;5.468;2023-02-13T01:07:13;103602.66;;;8.99;69.58
68075;BME280;54864;52.002;5.468;2023-02-13T01:08:15;103607.09;;;9.07;69.11
68075;BME280;54864;52.002;5.468;2023-02-13T01:09:18;103611.47;;;9.02;69.58
68075;BME280;54864;52.002;5.468;2023-02-13T01:10:19;103609.75;;;9.07;68.51
68075;BME280;54864;52.002;5.468;2023-02-13T01:11:21;103609.78;;;9.10;68.99
68075;BME280;54864;52.002;5.468;2023-02-13T01:12:21;103615.00;;;9.09;68.68
68075;BME280;54864;52.002;5.468;2023-02-13T01:13:23;103622.97;;;9.15;68.16
68075;BME280;54864;52.002;5.468;2023-02-13T01:14:25;103615.06;;;9.10;68.34
68075;BME280;54864;52.002;5.468;2023-02-13T01:15:27;103615.06;;;9.12;68.53
68075;BME280;54864;52.002;5.468;2023-02-13T01:16:28;103611.50;;;9.08;68.64
68075;BME280;54864;52.002;5.468;2023-02-13T01:17:30;103615.88;;;9.05;68.73
68075;BME280;54864;52.002;5.468;2023-02-13T01:18:31;103610.53;;;8.93;68.89
68075;BME280;54864;52.002;5.468;2023-02-13T01:19:33;103614.97;;;9.01;69.14
68075;BME280;54864;52.002;5.468;2023-02-13T01:20:34;103612.34;;;9.04;69.21
68075;BME280;54864;52.002;5.468;2023-02-13T01:21:36;103609.72;;;9.06;69.28
68075;BME280;54864;52.002;5.468;2023-02-13T01:22:37;103612.41;;;9.10;68.62
68075;BME280;54864;52.002;5.468;2023-02-13T01:23:38;103618.50;;;9.05;69.23
68075;BME280;54864;52.002;5.468;2023-02-13T01:24:39;103618.59;;;9.14;68.81
68075;BME280;54864;52.002;5.468;2023-02-13T01:25:41;103610.72;;;9.18;68.20
68075;BME280;54864;52.002;5.468;2023-02-13T01:26:42;103613.34;;;9.20;68.21
68075;BME280;54864;52.002;5.468;2023-02-13T01:27:44;103601.94;;;9.18;67.93
68075;BME280;54864;52.002;5.468;2023-02-13T01:28:45;103605.41;;;9.14;68.65
68075;BME280;54864;52.002;5.468;2023-02-13T01:29:48;103610.69;;;9.15;68.81
68075;BME280;54864;52.002;5.468;2023-02-13T01:30:53;103614.22;;;9.17;68.19
68075;BME280;54864;52.002;5.468;2023-02-13T01:31:55;103605.47;;;9.21;68.51
68075;BME280;54864;52.002;5.468;2023-02-13T01:32:56;103609.81;;;9.16;68.83
68075;BME280;54864;52.002;5.468;2023-02-13T01:33:58;103601.03;;;9.14;68.44
68075;BME280;54864;52.002;5.468;2023-02-13T01:34:59;103603.72;;;9.27;67.91
68075;BME280;54864;52.002;5.468;2023-02-13T01:36:05;103600.25;;;9.31;68.05
68075;BME280;54864;52.002;5.468;2023-02-13T01:37:06;103602.88;;;9.31;67.63
68075;BME280;54864;52.002;5.468;2023-02-13T01:38:07;103605.53;;;9.35;68.34
68075;BME280;54864;52.002;5.468;2023-02-13T01:39:10;103606.41;;;9.40;67.48
68075;BME280;54864;52.002;5.468;2023-02-13T01:40:13;103607.28;;;9.35;67.46
68075;BME280;54864;52.002;5.468;2023-02-13T01:41:14;103607.31;;;9.42;67.39
68075;BME280;54864;52.002;5.468;2023-02-13T01:42:21;103602.88;;;9.32;66.71
68075;BME280;54864;52.002;5.468;2023-02-13T01:43:22;103599.31;;;9.21;67.69
68075;BME280;54864;52.002;5.468;2023-02-13T01:44:49;103596.59;;;9.09;68.07
68075;BME280;54864;52.002;5.468;2023-02-13T01:45:52;103601.94;;;9.19;68.23
68075;BME280;54864;52.002;5.468;2023-02-13T01:46:58;103599.34;;;9.27;67.94
68075;BME280;54864;52.002;5.468;2023-02-13T01:48:01;103597.63;;;9.32;67.96
68075;BME280;54864;52.002;5.468;2023-02-13T01:49:09;103602.91;;;9.41;67.99
68075;BME280;54864;52.002;5.468;2023-02-13T01:50:16;103597.66;;;9.43;67.18
68075;BME280;54864;52.002;5.468;2023-02-13T01:51:22;103589.78;;;9.47;67.39
68075;BME280;54864;52.002;5.468;2023-02-13T01:52:24;103597.63;;;9.35;67.04
68075;BME280;54864;52.002;5.468;2023-02-13T01:53:30;103593.22;;;9.33;67.72
68075;BME280;54864;52.002;5.468;2023-02-13T01:54:33;103592.31;;;9.26;68.28
68075;BME280;54864;52.002;5.468;2023-02-13T01:55:41;103587.78;;;9.04;68.58
68075;BME280;54864;52.002;5.468;2023-02-13T01:56:47;103585.25;;;9.16;68.03
68075;BME280;54864;52.002;5.468;2023-02-13T01:57:52;103587.81;;;9.08;68.06
68075;BME280;54864;52.002;5.468;2023-02-13T01:58:58;103594.78;;;9.02;68.81
68075;BME280;54864;52.002;5.468;2023-02-13T02:00:04;103585.16;;;9.04;69.23
68075;BME280;54864;52.002;5.468;2023-02-13T02:01:07;103586.72;;;8.70;70.02
68075;BME280;54864;52.002;5.468;2023-02-13T02:02:09;103588.47;;;8.71;69.92
68075;BME280;54864;52.002;5.468;2023-02-13T02:03:13;103593.78;;;8.78;69.65
68075;BME280;54864;52.002;5.468;2023-02-13T02:04:19;103588.59;;;8.92;69.46
68075;BME280;54864;52.002;5.468;2023-02-13T02:05:26;103592.19;;;9.03;68.82
68075;BME280;54864;52.002;5.468;2023-02-13T02:06:32;103590.41;;;9.04;68.99
68075;BME280;54864;52.002;5.468;2023-02-13T02:07:36;103591.31;;;9.07;69.26
68075;BME280;54864;52.002;5.468;2023-02-13T02:08:39;103582.50;;;9.01;69.37
68075;BME280;54864;52.002;5.468;2023-02-13T02:09:42;103595.69;;;9.02;69.18
68075;BME280;54864;52.002;5.468;2023-02-13T02:10:44;103592.16;;;8.99;69.18
68075;BME280;54864;52.002;5.468;2023-02-13T02:11:51;103589.38;;;8.77;69.59
68075;BME280;54864;52.002;5.468;2023-02-13T02:13:05;103591.28;;;8.98;69.53
68075;BME280;54864;52.002;5.468;2023-02-13T02:14:08;103594.81;;;9.03;68.99
68075;BME280;54864;52.002;5.468;2023-02-13T02:15:11;103589.56;;;9.05;68.86
68075;BME280;54864;52.002;5.468;2023-02-13T02:16:13;103584.34;;;9.11;69.24
68075;BME280;54864;52.002;5.468;2023-02-13T02:17:14;103586.13;;;9.12;68.42
68075;BME280;54864;52.002;5.468;2023-02-13T02:18:17;103587.88;;;9.14;68.57
68075;BME280;54864;52.002;5.468;2023-02-13T02:19:28;103580.88;;;9.18;68.78
68075;BME280;54864;52.002;5.468;2023-02-13T02:22:23;103587.88;;;9.14;68.90
68075;BME280;54864;52.002;5.468;2023-02-13T02:25:52;103585.13;;;8.98;68.92
68075;BME280;54864;52.002;5.468;2023-02-13T02:27:31;103586.03;;;9.04;69.31
68075;BME280;54864;52.002;5.468;2023-02-13T02:28:48;103580.78;;;9.06;68.88
68075;BME280;54864;52.002;5.468;2023-02-13T02:30:29;103579.91;;;9.08;68.98
68075;BME280;54864;52.002;5.468;2023-02-13T02:32:01;103587.00;;;9.14;68.92
68075;BME280;54864;52.002;5.468;2023-02-13T02:33:20;103580.88;;;9.18;68.34
68075;BME280;54864;52.002;5.468;2023-02-13T02:34:31;103576.50;;;9.20;68.63
68075;BME280;54864;52.002;5.468;2023-02-13T02:35:44;103581.75;;;9.18;68.61
68075;BME280;54864;52.002;5.468;2023-02-13T02:36:56;103584.38;;;9.15;68.16
68075;BME280;54864;52.002;5.468;2023-02-13T02:38:09;103580.84;;;9.10;68.37
68075;BME280;54864;52.002;5.468;2023-02-13T02:39:24;103576.47;;;9.11;68.71
68075;BME280;54864;52.002;5.468;2023-02-13T02:40:36;103582.63;;;9.17;69.08
68075;BME280;54864;52.002;5.468;2023-02-13T02:41:51;103582.66;;;9.25;68.51
68075;BME280;54864;52.002;5.468;2023-02-13T02:43:11;103576.50;;;9.21;67.98
68075;BME280;54864;52.002;5.468;2023-02-13T02:44:36;103574.78;;;9.27;68.02
68075;BME280;54864;52.002;5.468;2023-02-13T02:45:47;103578.25;;;9.19;68.69
68075;BME280;54864;52.002;5.468;2023-02-13T02:46:57;103584.44;;;9.31;68.86
68075;BME280;54864;52.002;5.468;2023-02-13T02:48:23;103580.09;;;9.39;67.71
68075;BME280;54864;52.002;5.468;2023-02-13T02:49:49;103579.19;;;9.34;68.08
68075;BME280;54864;52.002;5.468;2023-02-13T02:51:08;103580.97;;;9.36;67.91
68075;BME280;54864;52.002;5.468;2023-02-13T02:52:16;103573.91;;;9.32;68.26
68075;BME280;54864;52.002;5.468;2023-02-13T02:53:29;103576.53;;;9.31;67.87
68075;BME280;54864;52.002;5.468;2023-02-13T02:54:36;103578.31;;;9.38;67.44
68075;BME280;54864;52.002;5.468;2023-02-13T02:56:00;103583.53;;;9.26;67.93
68075;BME280;54864;52.002;5.468;2023-02-13T02:57:10;103587.00;;;9.15;68.76
68075;BME280;54864;52.002;5.468;2023-02-13T02:58:16;103582.63;;;9.17;69.08
68075;BME280;54864;52.002;5.468;2023-02-13T02:59:43;103579.13;;;9.21;69.06
68075;BME280;54864;52.002;5.468;2023-02-13T03:01:06;103570.41;;;9.29;68.33
68075;BME280;54864;52.002;5.468;2023-02-13T03:02:29;103570.41;;;9.35;68.38
68075;BME280;54864;52.002;5.468;2023-02-13T03:03:51;103573.00;;;9.23;68.30
68075;BME280;54864;52.002;5.468;2023-02-13T03:05:18;103568.59;;;9.20;68.75
68075;BME280;54864;52.002;5.468;2023-02-13T03:06:43;103576.56;;;9.32;68.01
68075;BME280;54864;52.002;5.468;2023-02-13T03:07:46;103577.38;;;9.19;68.37
68075;BME280;54864;52.002;5.468;2023-02-13T03:08:52;103575.63;;;9.21;68.37
68075;BME280;54864;52.002;5.468;2023-02-13T03:10:17;103572.13;;;9.22;68.74
68075;BME280;54864;52.002;5.468;2023-02-13T03:11:41;103570.34;;;9.19;68.64
68075;BME280;54864;52.002;5.468;2023-02-13T03:13:05;103574.78;;;9.33;68.34
68075;BME280;54864;52.002;5.468;2023-02-13T03:14:24;103573.06;;;9.38;67.98
68075;BME280;54864;52.002;5.468;2023-02-13T03:15:26;103572.19;;;9.42;67.91
68075;BME280;54864;52.002;5.468;2023-02-13T03:16:29;103572.16;;;9.28;67.96
68075;BME280;54864;52.002;5.468;2023-02-13T03:17:50;103580.00;;;9.19;68.69
68075;BME280;54864;52.002;5.468;2023-02-13T03:19:12;103580.03;;;9.27;68.12
68075;BME280;54864;52.002;5.468;2023-02-13T03:20:41;103574.81;;;9.36;68.08
68075;BME280;54864;52.002;5.468;2023-02-13T03:22:06;103571.31;;;9.38;67.70
68075;BME280;54864;52.002;5.468;2023-02-13T03:23:33;103585.34;;;9.37;68.28
68075;BME280;54864;52.002;5.468;2023-02-13T03:24:45;103581.81;;;9.34;67.74
68075;BME280;54864;52.002;5.468;2023-02-13T03:26:00;103570.41;;;9.30;67.91
68075;BME280;54864;52.002;5.468;2023-02-13T03:27:08;103581.81;;;9.32;68.61
68075;BME280;54864;52.002;5.468;2023-02-13T03:28:17;103584.47;;;9.38;68.42
68075;BME280;54864;52.002;5.468;2023-02-13T03:29:44;103582.69;;;9.28;67.87
68075;BME280;54864;52.002;5.468;2023-02-13T03:31:11;103583.59;;;9.38;68.21
68075;BME280;54864;52.002;5.468;2023-02-13T03:32:21;103578.31;;;9.38;67.96
68075;BME280;54864;52.002;5.468;2023-02-13T03:33:38;103586.22;;;9.38;67.95
68075;BME280;54864;52.002;5.468;2023-02-13T03:34:53;103580.06;;;9.36;67.53
68075;BME280;54864;52.002;5.468;2023-02-13T03:36:21;103587.09;;;9.37;68.02
68075;BME280;54864;52.002;5.468;2023-02-13T03:37:49;103589.75;;;9.40;68.19
68075;BME280;54864;52.002;5.468;2023-02-13T03:38:59;103588.00;;;9.40;68.53
68075;BME280;54864;52.002;5.468;2023-02-13T03:40:08;103587.13;;;9.40;68.48
68075;BME280;54864;52.002;5.468;2023-02-13T03:41:17;103584.50;;;9.44;67.82
68075;BME280;54864;52.002;5.468;2023-02-13T03:42:24;103586.25;;;9.48;67.48
68075;BME280;54864;52.002;5.468;2023-02-13T03:43:29;103588.00;;;9.45;67.67
68075;BME280;54864;52.002;5.468;2023-02-13T03:44:36;103587.13;;;9.43;68.66
68075;BME280;54864;52.002;5.468;2023-02-13T03:45:43;103581.88;;;9.46;68.18
68075;BME280;54864;52.002;5.468;2023-02-13T03:46:58;103583.63;;;9.47;68.66
68075;BME280;54864;52.002;5.468;2023-02-13T03:48:03;103581.00;;;9.50;68.25
68075;BME280;54864;52.002;5.468;2023-02-13T03:49:17;103583.63;;;9.48;68.24
68075;BME280;54864;52.002;5.468;2023-02-13T03:50:40;103580.09;;;9.43;68.30
68075;BME280;54864;52.002;5.468;2023-02-13T03:51:46;103588.03;;;9.49;68.07
68075;BME280;54864;52.002;5.468;2023-02-13T03:52:52;103587.16;;;9.52;68.48
68075;BME280;54864;52.002;5.468;2023-02-13T03:53:56;103581.03;;;9.56;68.05
68075;BME280;54864;52.002;5.468;2023-02-13T03:55:04;103587.16;;;9.58;68.11
68075;BME280;54864;52.002;5.468;2023-02-13T03:56:25;103580.16;;;9.62;67.62
68075;BME280;54864;52.002;5.468;2023-02-13T03:57:46;103583.66;;;9.62;67.92
68075;BME280;54864;52.002;5.468;2023-02-13T03:59:08;103581.94;;;9.66;67.76
68075;BME280;54864;52.002;5.468;2023-02-13T04:00:18;103581.91;;;9.63;67.83
68075;BME280;54864;52.002;5.468;2023-02-13T04:01:25;103590.69;;;9.62;67.76
68075;BME280;54864;52.002;5.468;2023-02-13T04:02:30;103586.31;;;9.64;67.59
68075;BME280;54864;52.002;5.468;2023-02-13T04:03:39;103588.94;;;9.59;67.43
68075;BME280;54864;52.002;5.468;2023-02-13T04:04:50;103591.56;;;9.61;67.97
68075;BME280;54864;52.002;5.468;2023-02-13T04:05:58;103584.53;;;9.55;68.33
68075;BME280;54864;52.002;5.468;2023-02-13T04:07:05;103587.16;;;9.49;68.31
68075;BME280;54864;52.002;5.468;2023-02-13T04:08:10;103588.03;;;9.51;68.27
68075;BME280;54864;52.002;5.468;2023-02-13T04:09:20;103585.41;;;9.51;68.38
68075;BME280;54864;52.002;5.468;2023-02-13T04:10:23;103591.56;;;9.59;68.41
68075;BME280;54864;52.002;5.468;2023-02-13T04:13:04;103583.66;;;9.58;68.21
68075;BME280;54864;52.002;5.468;2023-02-13T04:14:25;103583.66;;;9.61;68.35
68075;BME280;54864;52.002;5.468;2023-02-13T04:15:33;103578.41;;;9.64;68.20
68075;BME280;54864;52.002;5.468;2023-02-13T04:16:39;103585.44;;;9.66;68.32
68075;BME280;54864;52.002;5.468;2023-02-13T04:17:47;103584.56;;;9.67;68.16
68075;BME280;54864;52.002;5.468;2023-02-13T04:18:59;103583.69;;;9.68;68.17
68075;BME280;54864;52.002;5.468;2023-02-13T04:20:08;103578.44;;;9.70;68.26
68075;BME280;54864;52.002;5.468;2023-02-13T04:21:11;103576.69;;;9.72;68.38
68075;BME280;54864;52.002;5.468;2023-02-13T04:22:14;103582.81;;;9.71;68.33
68075;BME280;54864;52.002;5.468;2023-02-13T04:23:26;103576.66;;;9.70;68.24
68075;BME280;54864;52.002;5.468;2023-02-13T04:24:33;103576.66;;;9.70;68.32
68075;BME280;54864;52.002;5.468;2023-02-13T04:25:37;103571.41;;;9.70;67.88
68075;BME280;54864;52.002;5.468;2023-02-13T04:26:43;103576.66;;;9.69;68.07
68075;BME280;54864;52.002;5.468;2023-02-13T04:27:46;103583.69;;;9.73;68.04
68075;BME280;54864;52.002;5.468;2023-02-13T04:28:48;103577.53;;;9.69;68.34
68075;BME280;54864;52.002;5.468;2023-02-13T04:29:52;103579.28;;;9.67;68.43
68075;BME280;54864;52.002;5.468;2023-02-13T04:30:55;103584.56;;;9.69;68.03
68075;BME280;54864;52.002;5.468;2023-02-13T04:32:02;103586.31;;;9.67;68.76
68075;BME280;54864;52.002;5.468;2023-02-13T04:33:04;103576.66;;;9.67;68.48
68075;BME280;54864;52.002;5.468;2023-02-13T04:34:06;103579.28;;;9.67;68.45
68075;BME280;54864;52.002;5.468;2023-02-13T04:35:11;103581.06;;;9.68;68.71
68075;BME280;54864;52.002;5.468;2023-02-13T04:36:13;103579.28;;;9.67;68.44
68075;BME280;54864;52.002;5.468;2023-02-13T04:37:14;103585.44;;;9.66;68.84
68075;BME280;54864;52.002;5.468;2023-02-13T04:38:18;103574.91;;;9.65;68.90
68075;BME280;54864;52.002;5.468;2023-02-13T04:39:20;103586.31;;;9.70;68.84
68075;BME280;54864;52.002;5.468;2023-02-13T04:40:22;103576.66;;;9.69;68.99
68075;BME280;54864;52.002;5.468;2023-02-13T04:41:23;103591.59;;;9.68;69.22
68075;BME280;54864;52.002;5.468;2023-02-13T04:42:24;103581.94;;;9.69;69.19
68075;BME280;54864;52.002;5.468;2023-02-13T04:43:26;103581.03;;;9.59;69.12
68075;BME280;54864;52.002;5.468;2023-02-13T04:44:34;103581.88;;;9.50;69.30
68075;BME280;54864;52.002;5.468;2023-02-13T04:45:35;103577.47;;;9.48;69.35
68075;BME280;54864;52.002;5.468;2023-02-13T04:46:39;103585.38;;;9.49;69.69
68075;BME280;54864;52.002;5.468;2023-02-13T04:47:58;103574.84;;;9.49;69.67
68075;BME280;54864;52.002;5.468;2023-02-13T04:49:04;103576.59;;;9.49;69.75
68075;BME280;54864;52.002;5.468;2023-02-13T04:50:06;103570.47;;;9.50;70.05
68075;BME280;54864;52.002;5.468;2023-02-13T04:51:11;103573.09;;;9.48;70.08
68075;BME280;54864;52.002;5.468;2023-02-13T04:52:13;103578.38;;;9.53;70.24
68075;BME280;54864;52.002;5.468;2023-02-13T04:53:14;103572.25;;;9.56;69.94
68075;BME280;54864;52.002;5.468;2023-02-13T04:54:17;103575.75;;;9.58;69.43
68075;BME280;54864;52.002;5.468;2023-02-13T04:55:17;103568.72;;;9.53;69.86
68075;BME280;54864;52.002;5.468;2023-02-13T04:56:19;103577.50;;;9.54;69.35
68075;BME280;54864;52.002;5.468;2023-02-13T04:57:20;103572.22;;;9.52;69.90
68075;BME280;54864;52.002;5.468;2023-02-13T04:58:22;103565.22;;;9.54;70.04
68075;BME280;54864;52.002;5.468;2023-02-13T04:59:22;103567.84;;;9.51;69.91
68075;BME280;54864;52.002;5.468;2023-02-13T05:00:26;103572.22;;;9.51;70.59
68075;BME280;54864;52.002;5.468;2023-02-13T05:01:27;103570.47;;;9.48;70.29
68075;BME280;54864;52.002;5.468;2023-02-13T05:02:32;103568.69;;;9.43;70.56
68075;BME280;54864;52.002;5.468;2023-02-13T05:03:33;103561.66;;;9.42;70.87
68075;BME280;54864;52.002;5.468;2023-02-13T05:04:35;103569.56;;;9.46;70.79
68075;BME280;54864;52.002;5.468;2023-02-13T05:05:36;103562.56;;;9.47;70.23
68075;BME280;54864;52.002;5.468;2023-02-13T05:06:39;103562.56;;;9.48;70.17
68075;BME280;54864;52.002;5.468;2023-02-13T05:07:40;103562.56;;;9.47;70.27
68075;BME280;54864;52.002;5.468;2023-02-13T05:08:43;103562.56;;;9.47;70.59
68075;BME280;54864;52.002;5.468;2023-02-13T05:09:43;103564.25;;;9.33;71.31
68075;BME280;54864;52.002;5.468;2023-02-13T05:10:45;103562.50;;;9.27;71.26
68075;BME280;54864;52.002;5.468;2023-02-13T05:11:46;103557.25;;;9.33;71.16
68075;BME280;54864;52.002;5.468;2023-02-13T05:12:48;103558.97;;;9.24;72.03
68075;BME280;54864;52.002;5.468;2023-02-13T05:13:48;103555.44;;;9.23;72.38
68075;BME280;54864;52.002;5.468;2023-02-13T05:14:50;103556.38;;;9.31;71.73
68075;BME280;54864;52.002;5.468;2023-02-13T05:15:51;103555.50;;;9.35;71.79
68075;BME280;54864;52.002;5.468;2023-02-13T05:16:53;103552.88;;;9.35;71.87
68075;BME280;54864;52.002;5.468;2023-02-13T05:17:54;103552.88;;;9.35;71.63
68075;BME280;54864;52.002;5.468;2023-02-13T05:18:55;103549.34;;;9.36;71.33
68075;BME280;54864;52.002;5.468;2023-02-13T05:19:57;103537.91;;;9.22;72.08
68075;BME280;54864;52.002;5.468;2023-02-13T05:20:58;103550.19;;;9.26;72.24
68075;BME280;54864;52.002;5.468;2023-02-13T05:22:19;103550.22;;;9.32;72.20
68075;BME280;54864;52.002;5.468;2023-02-13T05:23:38;103547.59;;;9.34;72.24
68075;BME280;54864;52.002;5.468;2023-02-13T05:24:40;103551.06;;;9.25;72.20
68075;BME280;54864;52.002;5.468;2023-02-13T05:25:41;103550.19;;;9.20;72.09
68075;BME280;54864;52.002;5.468;2023-02-13T05:26:42;103544.03;;;9.19;72.63
68075;BME280;54864;52.002;5.468;2023-02-13T05:27:43;103545.78;;;9.20;72.66
68075;BME280;54864;52.002;5.468;2023-02-13T05:28:45;103538.78;;;9.24;72.58
68075;BME280;54864;52.002;5.468;2023-02-13T05:30:05;103544.00;;;9.15;72.56
68075;BME280;54864;52.002;5.468;2023-02-13T05:31:06;103543.19;;;9.28;72.11
68075;BME280;54864;52.002;5.468;2023-02-13T05:32:07;103540.56;;;9.34;71.49
68075;BME280;54864;52.002;5.468;2023-02-13T05:33:08;103540.59;;;9.36;72.10
68075;BME280;54864;52.002;5.468;2023-02-13T05:34:11;103537.94;;;9.34;71.58
68075;BME280;54864;52.002;5.468;2023-02-13T05:35:12;103539.69;;;9.32;72.18
68075;BME280;54864;52.002;5.468;2023-02-13T05:36:13;103537.06;;;9.35;72.29
68075;BME280;54864;52.002;5.468;2023-02-13T05:37:14;103537.97;;;9.37;71.78
68075;BME280;54864;52.002;5.468;2023-02-13T05:38:18;103529.16;;;9.34;71.94
68075;BME280;54864;52.002;5.468;2023-02-13T05:39:20;103537.06;;;9.37;71.63
68075;BME280;54864;52.002;5.468;2023-02-13T05:40:22;103541.44;;;9.29;72.39
68075;BME280;54864;52.002;5.468;2023-02-13T05:41:23;103541.44;;;9.33;72.60
68075;BME280;54864;52.002;5.468;2023-02-13T05:42:25;103535.34;;;9.40;72.28
68075;BME280;54864;52.002;5.468;2023-02-13T05:43:25;103542.34;;;9.34;72.25
68075;BME280;54864;52.002;5.468;2023-02-13T05:44:27;103539.69;;;9.34;72.08
68075;BME280;54864;52.002;5.468;2023-02-13T05:45:28;103531.81;;;9.38;72.39
68075;BME280;54864;52.002;5.468;2023-02-13T05:46:30;103530.94;;;9.41;71.74
68075;BME280;54864;52.002;5.468;2023-02-13T05:47:30;103532.69;;;9.36;72.17
68075;BME280;54864;52.002;5.468;2023-02-13T05:48:32;103539.66;;;9.23;73.06
68075;BME280;54864;52.002;5.468;2023-02-13T05:49:33;103543.19;;;9.30;72.39
68075;BME280;54864;52.002;5.468;2023-02-13T05:50:35;103539.72;;;9.38;72.44
68075;BME280;54864;52.002;5.468;2023-02-13T05:51:36;103541.50;;;9.45;71.69
68075;BME280;54864;52.002;5.468;2023-02-13T05:52:38;103537.09;;;9.44;71.43
68075;BME280;54864;52.002;5.468;2023-02-13T05:53:40;103538.84;;;9.38;72.31
68075;BME280;54864;52.002;5.468;2023-02-13T05:54:42;103538.81;;;9.36;72.48
68075;BME280;54864;52.002;5.468;2023-02-13T05:55:45;103532.66;;;9.31;72.35
68075;BME280;54864;52.002;5.468;2023-02-13T05:56:46;103541.44;;;9.33;72.67
68075;BME280;54864;52.002;5.468;2023-02-13T05:57:47;103539.69;;;9.28;73.14